Time;durP1;ratioP1;P1;durP2;ratioP2;P2;SDS_P1;SDS_P2;PMS_P1;PMS_P2;Temp;Humidity;BMP_temperature;BMP_pressure;BME280_temperature;BME280_humidity;BME280_pressure;Samples;Min_cycle;Max_cycle;Signal;HPM_P1;HPM_P2
2022/09/19 00:01:47;;;;;;;0.97;0.63;;;;;;;;;;4995495;28;20448;-78
2022/09/19 00:04:15;;;;;;;0.70;0.70;;;;;;;;;;4995482;28;20975;-78
2022/09/19 00:06:43;;;;;;;0.70;0.70;;;;;;;;;;4995671;28;20453;-77
2022/09/19 00:09:11;;;;;;;0.60;0.60;;;;;;;;;;4997670;28;20472;-80
2022/09/19 00:11:40;;;;;;;0.60;0.60;;;;;;;;;;4996564;28;20443;-78
2022/09/19 00:14:08;;;;;;;0.97;0.50;;;;;;;;;;4989694;28;20511;-80
2022/09/19 00:16:38;;;;;;;0.50;0.50;;;;;;;;;;4996108;28;20462;-79
2022/09/19 00:19:06;;;;;;;0.70;0.70;;;;;;;;;;4995961;28;20475;-77
2022/09/19 00:21:34;;;;;;;0.60;0.60;;;;;;;;;;4998904;28;20451;-79
2022/09/19 00:26:48;;;;;;;0.50;0.50;;;;;;;;;;4995105;28;20486;-77
2022/09/19 00:29:16;;;;;;;0.60;0.60;;;;;;;;;;4996537;28;20518;-78
2022/09/19 00:31:44;;;;;;;0.50;0.50;;;;;;;;;;4998389;28;20440;-77
2022/09/19 00:34:11;;;;;;;0.80;0.50;;;;;;;;;;4998057;28;20448;-77
2022/09/19 00:36:39;;;;;;;0.50;0.50;;;;;;;;;;4999733;28;20447;-80
2022/09/19 00:39:07;;;;;;;0.50;0.50;;;;;;;;;;4997834;28;20836;-77
2022/09/19 00:41:36;;;;;;;0.53;0.53;;;;;;;;;;4995680;28;20852;-79
2022/09/19 00:44:05;;;;;;;0.50;0.50;;;;;;;;;;4997592;28;20456;-78
2022/09/19 00:46:33;;;;;;;0.50;0.50;;;;;;;;;;4996292;28;20506;-77
2022/09/19 00:49:03;;;;;;;0.60;0.60;;;;;;;;;;4994505;28;20464;-78
2022/09/19 00:51:32;;;;;;;0.40;0.40;;;;;;;;;;4995073;28;20962;-77
2022/09/19 00:54:01;;;;;;;0.50;0.50;;;;;;;;;;4994416;28;20546;-77
2022/09/19 00:56:28;;;;;;;0.50;0.50;;;;;;;;;;4993873;28;20455;-78
2022/09/19 00:58:57;;;;;;;1.17;0.60;;;;;;;;;;4994547;28;20495;-78
2022/09/19 01:01:25;;;;;;;0.40;0.40;;;;;;;;;;4995627;28;20467;-78
2022/09/19 01:03:53;;;;;;;0.60;0.60;;;;;;;;;;4995559;28;20443;-78
2022/09/19 01:06:27;;;;;;;0.50;0.50;;;;;;;;;;4995080;28;20472;-79
2022/09/19 01:09:03;;;;;;;0.40;0.40;;;;;;;;;;4995622;28;20545;-77
2022/09/19 01:11:41;;;;;;;0.47;0.47;;;;;;;;;;4995148;28;20452;-79
2022/09/19 01:14:14;;;;;;;0.50;0.50;;;;;;;;;;4993797;28;20433;-77
2022/09/19 01:16:44;;;;;;;0.43;0.43;;;;;;;;;;4998825;28;20437;-77
2022/09/19 01:19:18;;;;;;;0.50;0.50;;;;;;;;;;4999282;28;20460;-79
2022/09/19 01:21:52;;;;;;;0.60;0.60;;;;;;;;;;4999022;28;20462;-78
2022/09/19 01:24:40;;;;;;;0.70;0.70;;;;;;;;;;5001006;28;20451;-78
2022/09/19 01:27:17;;;;;;;0.40;0.40;;;;;;;;;;5002501;28;20514;-76
2022/09/19 01:29:47;;;;;;;1.23;0.80;;;;;;;;;;5004720;28;20472;-76
2022/09/19 01:32:18;;;;;;;0.50;0.50;;;;;;;;;;5002187;28;20943;-76
2022/09/19 01:34:49;;;;;;;0.50;0.50;;;;;;;;;;4998823;28;20496;-77
2022/09/19 01:37:18;;;;;;;0.70;0.70;;;;;;;;;;5000491;28;20433;-78
2022/09/19 01:39:47;;;;;;;0.80;0.80;;;;;;;;;;4995969;28;20475;-78
2022/09/19 01:42:15;;;;;;;0.80;0.70;;;;;;;;;;4994069;28;20483;-77
2022/09/19 01:44:42;;;;;;;0.63;0.63;;;;;;;;;;4994439;28;20451;-77
2022/09/19 01:47:15;;;;;;;0.73;0.73;;;;;;;;;;4995249;28;20452;-78
2022/09/19 01:49:48;;;;;;;1.10;1.10;;;;;;;;;;4995360;28;20464;-77
2022/09/19 01:52:19;;;;;;;1.10;1.10;;;;;;;;;;5005600;28;20416;-76
2022/09/19 01:54:49;;;;;;;2.87;1.00;;;;;;;;;;5007543;28;20481;-78
2022/09/19 01:57:21;;;;;;;0.90;0.90;;;;;;;;;;5008217;28;20436;-76
2022/09/19 02:00:11;;;;;;;0.73;0.70;;;;;;;;;;5007429;28;20472;-77
2022/09/19 02:02:46;;;;;;;1.40;0.80;;;;;;;;;;5002530;28;20467;-77
2022/09/19 02:05:15;;;;;;;1.47;0.93;;;;;;;;;;5006431;28;20420;-76
2022/09/19 02:07:46;;;;;;;1.00;1.00;;;;;;;;;;5005184;28;20466;-78
2022/09/19 02:10:17;;;;;;;0.93;0.93;;;;;;;;;;4996367;28;20431;-77
2022/09/19 02:12:45;;;;;;;0.90;0.90;;;;;;;;;;4992734;28;20428;-79
2022/09/19 02:15:14;;;;;;;0.97;0.97;;;;;;;;;;4992902;28;20567;-78
2022/09/19 02:17:51;;;;;;;0.80;0.80;;;;;;;;;;4992574;28;20452;-77
2022/09/19 02:20:21;;;;;;;1.03;1.03;;;;;;;;;;4992342;28;20467;-78
2022/09/19 02:22:49;;;;;;;0.80;0.80;;;;;;;;;;4992111;28;20815;-77
2022/09/19 02:25:18;;;;;;;1.03;1.03;;;;;;;;;;4992036;28;20489;-78
2022/09/19 02:27:50;;;;;;;1.17;1.00;;;;;;;;;;4993518;28;20486;-78
2022/09/19 02:30:18;;;;;;;1.13;0.70;;;;;;;;;;4993002;28;20468;-77
2022/09/19 02:32:48;;;;;;;1.10;1.10;;;;;;;;;;4987302;28;20911;-78
2022/09/19 02:35:15;;;;;;;1.57;0.97;;;;;;;;;;4991086;28;20582;-78
2022/09/19 02:37:47;;;;;;;0.90;0.90;;;;;;;;;;4994896;28;20908;-80
2022/09/19 02:40:20;;;;;;;2.97;1.00;;;;;;;;;;4995858;28;20480;-78
2022/09/19 02:42:49;;;;;;;0.97;0.90;;;;;;;;;;4992566;28;20436;-76
2022/09/19 02:45:19;;;;;;;1.30;1.30;;;;;;;;;;4992924;28;20444;-78
2022/09/19 02:47:50;;;;;;;0.70;0.70;;;;;;;;;;4994300;28;20468;-77
2022/09/19 02:50:19;;;;;;;0.90;0.90;;;;;;;;;;4992771;28;20515;-78
2022/09/19 02:52:48;;;;;;;3.23;1.00;;;;;;;;;;4998280;28;20448;-77
2022/09/19 02:55:17;;;;;;;1.20;1.20;;;;;;;;;;5001958;28;20480;-77
2022/09/19 02:57:47;;;;;;;2.93;1.10;;;;;;;;;;4992541;28;20480;-78
2022/09/19 03:00:15;;;;;;;1.03;0.93;;;;;;;;;;4992152;28;20452;-77
2022/09/19 03:02:44;;;;;;;2.07;1.00;;;;;;;;;;4991661;28;20449;-77
2022/09/19 03:05:15;;;;;;;2.87;1.20;;;;;;;;;;4991660;28;20475;-77
2022/09/19 03:07:44;;;;;;;1.03;1.03;;;;;;;;;;4991554;28;20437;-77
2022/09/19 03:10:13;;;;;;;2.00;0.90;;;;;;;;;;4991250;28;20456;-78
2022/09/19 03:12:44;;;;;;;0.97;0.90;;;;;;;;;;4991435;28;20486;-77
2022/09/19 03:15:11;;;;;;;0.80;0.80;;;;;;;;;;4992089;28;20484;-78
2022/09/19 03:17:40;;;;;;;2.00;1.13;;;;;;;;;;4982657;28;20457;-77
2022/09/19 03:20:11;;;;;;;4.00;1.10;;;;;;;;;;4980794;28;20463;-77
2022/09/19 03:22:40;;;;;;;1.90;1.07;;;;;;;;;;4992986;28;20471;-78
2022/09/19 03:25:07;;;;;;;2.67;1.10;;;;;;;;;;4990219;28;20776;-77
2022/09/19 03:27:37;;;;;;;0.70;0.70;;;;;;;;;;4993045;28;21194;-78
2022/09/19 03:30:05;;;;;;;2.33;0.93;;;;;;;;;;4998315;28;20467;-79
2022/09/19 03:32:32;;;;;;;1.20;1.10;;;;;;;;;;4999141;28;20453;-76
2022/09/19 03:34:59;;;;;;;2.40;1.10;;;;;;;;;;4999728;28;20451;-77
2022/09/19 03:37:26;;;;;;;1.20;1.10;;;;;;;;;;4999496;28;20451;-78
2022/09/19 03:39:54;;;;;;;2.20;1.33;;;;;;;;;;5000959;28;20457;-79
2022/09/19 03:42:21;;;;;;;1.10;1.00;;;;;;;;;;4999291;28;20452;-76
2022/09/19 03:44:48;;;;;;;1.30;1.20;;;;;;;;;;5000008;28;20862;-79
2022/09/19 03:47:15;;;;;;;2.67;1.40;;;;;;;;;;5001424;28;20445;-78
2022/09/19 03:49:43;;;;;;;3.17;1.20;;;;;;;;;;4999157;28;20478;-78
2022/09/19 03:52:10;;;;;;;3.13;1.23;;;;;;;;;;4998305;28;20434;-77
2022/09/19 03:54:38;;;;;;;5.00;1.20;;;;;;;;;;4997974;28;20482;-78
2022/09/19 03:57:06;;;;;;;2.77;1.37;;;;;;;;;;4998456;28;20475;-77
2022/09/19 03:59:34;;;;;;;1.53;1.30;;;;;;;;;;4998615;28;20468;-78
2022/09/19 04:02:01;;;;;;;2.03;1.17;;;;;;;;;;4998487;28;20551;-78
2022/09/19 04:04:28;;;;;;;3.60;1.10;;;;;;;;;;4998119;28;20444;-78
2022/09/19 04:06:55;;;;;;;3.87;1.40;;;;;;;;;;4998215;28;20531;-77
2022/09/19 04:09:22;;;;;;;6.40;1.43;;;;;;;;;;4997757;28;20497;-77
2022/09/19 04:11:49;;;;;;;4.43;1.73;;;;;;;;;;4998069;28;20459;-77
2022/09/19 04:14:17;;;;;;;2.20;1.30;;;;;;;;;;4997529;28;20453;-77
2022/09/19 04:16:44;;;;;;;3.40;1.47;;;;;;;;;;4998306;28;20487;-79
2022/09/19 04:19:12;;;;;;;2.87;1.33;;;;;;;;;;4998190;28;20506;-79
2022/09/19 04:21:41;;;;;;;3.67;1.57;;;;;;;;;;4997492;28;20451;-77
2022/09/19 04:24:08;;;;;;;1.27;1.00;;;;;;;;;;4990935;28;20526;-79
2022/09/19 04:26:36;;;;;;;4.63;1.53;;;;;;;;;;4982055;28;20451;-78
2022/09/19 04:29:03;;;;;;;1.47;1.30;;;;;;;;;;4977508;28;20598;-77
2022/09/19 04:31:37;;;;;;;3.27;1.43;;;;;;;;;;4978619;28;20815;-78
2022/09/19 04:34:05;;;;;;;5.53;1.67;;;;;;;;;;4978329;28;20781;-78
2022/09/19 04:36:32;;;;;;;4.13;1.40;;;;;;;;;;4978655;28;20954;-78
2022/09/19 04:39:02;;;;;;;2.97;1.13;;;;;;;;;;4978725;28;20518;-77
2022/09/19 04:41:30;;;;;;;5.63;1.57;;;;;;;;;;4984240;28;20956;-78
2022/09/19 04:43:57;;;;;;;2.50;1.40;;;;;;;;;;4984714;28;20457;-77
2022/09/19 04:46:25;;;;;;;3.07;1.47;;;;;;;;;;4984997;28;20520;-77
2022/09/19 04:48:54;;;;;;;5.43;2.03;;;;;;;;;;4984192;28;20472;-79
2022/09/19 04:51:21;;;;;;;4.47;1.53;;;;;;;;;;4980553;28;20536;-78
2022/09/19 04:53:48;;;;;;;2.07;1.60;;;;;;;;;;4974723;28;20936;-78
2022/09/19 04:56:17;;;;;;;4.37;1.67;;;;;;;;;;4975395;28;20492;-78
2022/09/19 04:58:44;;;;;;;4.37;1.40;;;;;;;;;;4975395;28;20531;-77
2022/09/19 05:01:11;;;;;;;3.10;1.43;;;;;;;;;;4975335;28;20453;-77
2022/09/19 05:03:38;;;;;;;2.67;1.30;;;;;;;;;;4975115;28;20463;-77
2022/09/19 05:06:07;;;;;;;10.00;2.43;;;;;;;;;;4976246;28;20459;-78
2022/09/19 05:08:34;;;;;;;3.27;1.60;;;;;;;;;;4975878;28;20487;-79
2022/09/19 05:11:02;;;;;;;3.33;1.37;;;;;;;;;;4976267;28;20457;-78
2022/09/19 05:13:30;;;;;;;4.93;1.73;;;;;;;;;;4975505;28;20508;-77
2022/09/19 05:15:57;;;;;;;2.43;1.60;;;;;;;;;;4975609;28;20483;-78
2022/09/19 05:18:25;;;;;;;8.10;1.80;;;;;;;;;;4975592;28;20469;-79
2022/09/19 05:20:53;;;;;;;4.13;1.70;;;;;;;;;;4974989;28;20476;-77
2022/09/19 05:23:22;;;;;;;4.10;1.70;;;;;;;;;;4974888;28;21101;-79
2022/09/19 05:25:53;;;;;;;5.77;1.47;;;;;;;;;;4974841;28;20456;-78
2022/09/19 05:28:21;;;;;;;8.73;2.50;;;;;;;;;;4975515;28;20882;-79
2022/09/19 05:30:50;;;;;;;5.43;1.77;;;;;;;;;;4974634;28;20448;-78
2022/09/19 05:33:20;;;;;;;6.03;1.77;;;;;;;;;;4975261;28;21268;-79
2022/09/19 05:35:47;;;;;;;4.57;1.93;;;;;;;;;;4975236;28;20824;-77
2022/09/19 05:38:14;;;;;;;3.47;1.73;;;;;;;;;;4975422;28;20473;-79
2022/09/19 05:40:42;;;;;;;5.23;1.50;;;;;;;;;;4975306;28;20460;-79
2022/09/19 05:43:10;;;;;;;3.40;1.60;;;;;;;;;;4974757;28;20452;-78
2022/09/19 05:45:38;;;;;;;3.43;1.47;;;;;;;;;;4975589;28;20548;-78
2022/09/19 05:48:05;;;;;;;6.07;1.70;;;;;;;;;;4976041;28;21326;-78
2022/09/19 05:50:33;;;;;;;7.20;2.60;;;;;;;;;;4974915;28;20460;-78
2022/09/19 05:55:46;;;;;;;4.13;1.40;;;;;;;;;;4977228;28;20512;-79
2022/09/19 05:58:16;;;;;;;4.50;1.90;;;;;;;;;;4974643;28;20822;-78
2022/09/19 06:00:44;;;;;;;1.70;1.40;;;;;;;;;;4975193;28;20448;-77
2022/09/19 06:03:16;;;;;;;4.60;2.10;;;;;;;;;;4984083;28;20468;-78
2022/09/19 06:05:43;;;;;;;5.43;1.80;;;;;;;;;;4994260;28;20499;-79
2022/09/19 06:08:12;;;;;;;3.60;1.70;;;;;;;;;;4993972;28;20547;-79
2022/09/19 06:10:40;;;;;;;2.83;1.70;;;;;;;;;;4992944;28;20479;-78
2022/09/19 06:13:09;;;;;;;3.37;1.50;;;;;;;;;;4993532;28;20448;-79
2022/09/19 06:15:36;;;;;;;6.17;1.80;;;;;;;;;;4993781;28;20451;-79
2022/09/19 06:18:03;;;;;;;5.30;1.90;;;;;;;;;;4991455;28;20499;-78
2022/09/19 06:20:30;;;;;;;4.43;2.43;;;;;;;;;;4994518;28;20441;-77
2022/09/19 06:22:57;;;;;;;3.90;2.00;;;;;;;;;;4994426;28;20460;-79
2022/09/19 06:25:25;;;;;;;3.97;1.93;;;;;;;;;;4998550;28;20476;-78
2022/09/19 06:27:55;;;;;;;4.90;2.03;;;;;;;;;;4998988;28;20483;-79
2022/09/19 06:30:24;;;;;;;3.30;1.87;;;;;;;;;;4993929;28;20448;-78
2022/09/19 06:32:51;;;;;;;6.50;1.93;;;;;;;;;;4997963;28;20836;-80
2022/09/19 06:35:19;;;;;;;7.70;1.97;;;;;;;;;;4995841;28;20468;-76
2022/09/19 06:37:46;;;;;;;8.47;2.27;;;;;;;;;;4993157;28;20910;-79
2022/09/19 06:40:13;;;;;;;8.77;2.00;;;;;;;;;;4994269;28;20935;-79
2022/09/19 06:42:40;;;;;;;7.57;1.93;;;;;;;;;;4995278;28;20453;-79
2022/09/19 06:45:07;;;;;;;6.07;2.63;;;;;;;;;;4994235;28;20535;-78
2022/09/19 06:47:37;;;;;;;5.10;1.60;;;;;;;;;;4997106;28;20872;-77
2022/09/19 06:50:04;;;;;;;4.27;1.80;;;;;;;;;;4994944;28;20961;-78
2022/09/19 06:52:31;;;;;;;5.30;2.37;;;;;;;;;;4991668;28;20463;-77
2022/09/19 06:54:58;;;;;;;17.77;3.30;;;;;;;;;;4991930;28;20522;-78
2022/09/19 06:57:25;;;;;;;18.37;3.00;;;;;;;;;;5006516;28;20595;-76
2022/09/19 06:59:52;;;;;;;4.93;2.00;;;;;;;;;;5010092;28;20448;-77
2022/09/19 07:02:21;;;;;;;7.60;2.70;;;;;;;;;;5014849;28;20439;-77
2022/09/19 07:04:49;;;;;;;12.93;3.20;;;;;;;;;;5012411;28;20532;-76
2022/09/19 07:07:16;;;;;;;16.53;3.07;;;;;;;;;;5002204;28;20472;-77
2022/09/19 07:09:43;;;;;;;8.53;2.60;;;;;;;;;;4992875;28;20476;-77
2022/09/19 07:12:10;;;;;;;7.40;2.17;;;;;;;;;;4993051;28;20507;-78
2022/09/19 07:14:39;;;;;;;9.53;2.53;;;;;;;;;;4993994;28;20514;-78
2022/09/19 07:17:06;;;;;;;10.63;2.40;;;;;;;;;;4993556;28;20561;-78
2022/09/19 07:19:33;;;;;;;11.30;3.47;;;;;;;;;;4992376;28;20481;-78
2022/09/19 07:22:01;;;;;;;9.70;2.83;;;;;;;;;;4992499;28;20452;-78
2022/09/19 07:24:28;;;;;;;7.57;2.00;;;;;;;;;;4992160;28;20928;-78
2022/09/19 07:26:55;;;;;;;8.50;2.23;;;;;;;;;;4992571;28;20448;-77
2022/09/19 07:29:22;;;;;;;15.80;3.20;;;;;;;;;;4993144;28;20479;-77
2022/09/19 07:31:49;;;;;;;13.90;3.23;;;;;;;;;;4991992;28;20916;-77
2022/09/19 07:34:16;;;;;;;8.00;2.53;;;;;;;;;;4991482;28;20450;-77
2022/09/19 07:36:43;;;;;;;5.40;2.53;;;;;;;;;;4991936;28;20483;-79
2022/09/19 07:39:12;;;;;;;5.30;2.23;;;;;;;;;;4991392;28;20464;-79
2022/09/19 07:41:39;;;;;;;3.90;1.93;;;;;;;;;;4991390;28;21002;-77
2022/09/19 07:44:06;;;;;;;6.80;2.10;;;;;;;;;;4991315;28;20449;-78
2022/09/19 07:46:33;;;;;;;4.40;1.80;;;;;;;;;;4991853;28;20452;-78
2022/09/19 07:49:00;;;;;;;5.07;2.07;;;;;;;;;;4992178;28;20472;-77
2022/09/19 07:51:27;;;;;;;5.63;2.60;;;;;;;;;;4991491;28;20925;-77
2022/09/19 07:53:56;;;;;;;7.50;2.33;;;;;;;;;;4991655;28;20455;-78
2022/09/19 07:56:24;;;;;;;6.00;1.83;;;;;;;;;;4986267;28;20825;-78
2022/09/19 07:58:51;;;;;;;4.30;1.93;;;;;;;;;;4991476;28;20518;-77
2022/09/19 08:01:18;;;;;;;4.20;1.73;;;;;;;;;;4991837;28;20440;-77
2022/09/19 08:03:46;;;;;;;6.20;2.23;;;;;;;;;;4991516;28;20452;-77
2022/09/19 08:06:13;;;;;;;9.17;2.10;;;;;;;;;;4991878;28;20722;-79
2022/09/19 08:08:40;;;;;;;10.90;2.70;;;;;;;;;;4987086;28;20972;-77
2022/09/19 08:11:07;;;;;;;9.43;2.83;;;;;;;;;;4992039;28;20449;-79
2022/09/19 08:13:36;;;;;;;4.07;2.27;;;;;;;;;;4991855;28;20445;-78
2022/09/19 08:16:03;;;;;;;9.47;2.40;;;;;;;;;;4994471;28;20444;-78
2022/09/19 08:18:31;;;;;;;8.60;2.40;;;;;;;;;;4995064;28;20496;-78
2022/09/19 08:20:58;;;;;;;7.50;2.30;;;;;;;;;;4995345;28;20448;-79
2022/09/19 08:23:25;;;;;;;8.97;2.60;;;;;;;;;;4994975;28;20479;-78
2022/09/19 08:25:53;;;;;;;6.33;2.30;;;;;;;;;;4995469;28;20472;-77
2022/09/19 08:28:21;;;;;;;4.20;2.00;;;;;;;;;;4994971;28;20471;-79
2022/09/19 08:30:50;;;;;;;5.13;1.97;;;;;;;;;;4995333;28;20448;-78
2022/09/19 08:33:18;;;;;;;5.57;2.80;;;;;;;;;;4994778;28;20448;-77
2022/09/19 08:35:45;;;;;;;4.50;2.20;;;;;;;;;;4995547;28;20515;-77
2022/09/19 08:38:13;;;;;;;8.80;2.70;;;;;;;;;;4995761;28;20479;-77
2022/09/19 08:40:58;;;;;;;3.73;1.80;;;;;;;;;;4994950;28;20491;-77
2022/09/19 08:43:28;;;;;;;6.27;2.63;;;;;;;;;;4975027;28;20453;-78
2022/09/19 08:46:05;;;;;;;10.93;2.20;;;;;;;;;;4996664;28;20428;-78
2022/09/19 08:48:38;;;;;;;4.47;1.93;;;;;;;;;;4976165;28;20818;-79
2022/09/19 08:51:07;;;;;;;5.63;2.80;;;;;;;;;;4976713;28;20437;-77
2022/09/19 08:53:37;;;;;;;10.23;2.50;;;;;;;;;;4975775;28;20441;-78
2022/09/19 08:56:05;;;;;;;5.97;2.60;;;;;;;;;;4976961;28;21031;-78
2022/09/19 08:58:36;;;;;;;7.80;2.53;;;;;;;;;;4975979;28;20489;-78
2022/09/19 09:01:06;;;;;;;10.27;2.40;;;;;;;;;;4974941;28;20437;-76
2022/09/19 09:03:39;;;;;;;10.97;2.77;;;;;;;;;;4975072;28;20446;-77
2022/09/19 09:06:14;;;;;;;4.37;2.03;;;;;;;;;;4975877;28;20430;-77
2022/09/19 09:08:46;;;;;;;5.20;2.20;;;;;;;;;;4975674;28;20465;-78
2022/09/19 09:11:18;;;;;;;8.50;2.47;;;;;;;;;;4974650;28;20453;-77
2022/09/19 09:13:48;;;;;;;6.70;2.10;;;;;;;;;;4974291;28;20575;-78
2022/09/19 09:16:21;;;;;;;3.47;2.10;;;;;;;;;;4974960;28;20841;-78
2022/09/19 09:18:58;;;;;;;7.63;2.90;;;;;;;;;;4991684;28;20495;-79
2022/09/19 09:21:29;;;;;;;8.10;2.40;;;;;;;;;;4993945;28;20532;-78
2022/09/19 09:23:59;;;;;;;5.03;2.30;;;;;;;;;;4993326;28;20444;-77
2022/09/19 09:26:27;;;;;;;6.10;2.33;;;;;;;;;;4995078;28;20448;-76
2022/09/19 09:28:58;;;;;;;5.03;2.20;;;;;;;;;;4995122;28;20469;-78
2022/09/19 09:31:29;;;;;;;7.50;2.03;;;;;;;;;;4993099;28;20452;-78
2022/09/19 09:33:58;;;;;;;5.00;2.33;;;;;;;;;;4992929;28;20456;-76
2022/09/19 09:36:31;;;;;;;6.00;2.63;;;;;;;;;;4993039;28;20444;-76
2022/09/19 09:39:01;;;;;;;5.30;2.23;;;;;;;;;;4992640;28;20498;-77
2022/09/19 09:41:45;;;;;;;5.17;2.77;;;;;;;;;;4993742;28;20543;-78
2022/09/19 09:44:23;;;;;;;7.53;2.27;;;;;;;;;;4992891;28;20428;-76
2022/09/19 09:46:58;;;;;;;4.20;2.37;;;;;;;;;;4992985;28;20888;-78
2022/09/19 09:49:27;;;;;;;3.97;2.57;;;;;;;;;;4995824;28;20478;-76
2022/09/19 09:51:58;;;;;;;6.47;2.60;;;;;;;;;;4994913;28;20498;-77
2022/09/19 09:57:28;;;;;;;5.03;2.57;;;;;;;;;;4992310;28;20475;-76
2022/09/19 10:05:38;;;;;;;3.90;2.43;;;;;;;;;;4992037;28;21114;-78
2022/09/19 10:08:11;;;;;;;2.97;2.00;;;;;;;;;;4991605;28;20515;-76
2022/09/19 10:10:41;;;;;;;7.40;2.50;;;;;;;;;;4992082;28;20503;-78
2022/09/19 10:13:14;;;;;;;4.97;2.50;;;;;;;;;;4980316;28;20480;-77
2022/09/19 10:15:41;;;;;;;3.37;1.90;;;;;;;;;;4992244;28;20448;-78
2022/09/19 10:18:12;;;;;;;4.00;2.13;;;;;;;;;;4992513;28;20484;-77
2022/09/19 10:20:40;;;;;;;4.73;2.03;;;;;;;;;;4995393;28;20448;-77
2022/09/19 10:23:13;;;;;;;2.97;2.03;;;;;;;;;;4996236;28;20995;-77
2022/09/19 10:25:40;;;;;;;3.47;2.13;;;;;;;;;;4996299;28;20413;-77
2022/09/19 10:28:17;;;;;;;8.13;3.33;;;;;;;;;;4996068;28;21043;-76
2022/09/19 10:30:51;;;;;;;3.83;1.90;;;;;;;;;;4996320;28;20539;-75
2022/09/19 10:33:26;;;;;;;4.43;2.33;;;;;;;;;;4992206;28;20460;-77
2022/09/19 10:35:58;;;;;;;1.87;1.77;;;;;;;;;;4992001;28;20480;-77
2022/09/19 10:38:26;;;;;;;4.07;2.23;;;;;;;;;;4992202;28;20567;-78
2022/09/19 10:40:56;;;;;;;3.90;2.00;;;;;;;;;;4992056;28;20878;-78
2022/09/19 10:43:26;;;;;;;3.87;1.90;;;;;;;;;;4992001;28;20512;-77
2022/09/19 10:45:54;;;;;;;3.30;1.90;;;;;;;;;;4991966;28;20554;-79
2022/09/19 10:48:26;;;;;;;4.60;1.73;;;;;;;;;;4992300;28;20479;-78
2022/09/19 10:50:54;;;;;;;5.20;2.93;;;;;;;;;;4991989;28;20779;-77
2022/09/19 10:53:23;;;;;;;2.10;1.80;;;;;;;;;;4991824;28;20878;-78
2022/09/19 10:55:52;;;;;;;2.70;1.60;;;;;;;;;;4991857;28;20511;-78
2022/09/19 10:58:22;;;;;;;4.77;2.00;;;;;;;;;;4992727;28;20555;-78
2022/09/19 11:00:52;;;;;;;2.73;1.53;;;;;;;;;;4993517;28;20449;-76
2022/09/19 11:03:23;;;;;;;2.83;2.03;;;;;;;;;;4992943;28;20944;-78
2022/09/19 11:06:02;;;;;;;5.67;2.00;;;;;;;;;;4991532;28;20456;-76
2022/09/19 11:08:31;;;;;;;3.93;1.77;;;;;;;;;;4991513;28;20856;-78
2022/09/19 11:11:04;;;;;;;4.73;1.90;;;;;;;;;;4991646;28;20456;-79
2022/09/19 11:13:31;;;;;;;2.37;1.60;;;;;;;;;;4991841;28;20463;-78
2022/09/19 11:16:03;;;;;;;3.20;1.60;;;;;;;;;;4993579;28;20466;-77
2022/09/19 11:18:33;;;;;;;5.40;2.07;;;;;;;;;;4991539;28;20534;-80
2022/09/19 11:21:07;;;;;;;1.77;1.50;;;;;;;;;;4991137;28;20440;-77
2022/09/19 11:23:43;;;;;;;3.83;2.17;;;;;;;;;;4990620;28;20455;-77
2022/09/19 11:26:18;;;;;;;2.70;1.80;;;;;;;;;;4992702;28;20444;-77
2022/09/19 11:28:50;;;;;;;2.50;1.50;;;;;;;;;;4990344;28;20637;-77
2022/09/19 11:31:21;;;;;;;4.30;2.00;;;;;;;;;;4990526;28;20843;-76
2022/09/19 11:33:55;;;;;;;2.30;1.43;;;;;;;;;;4990270;28;20503;-76
2022/09/19 11:36:27;;;;;;;4.47;1.70;;;;;;;;;;4990842;28;20451;-78
2022/09/19 11:39:03;;;;;;;5.60;2.40;;;;;;;;;;4991097;28;20662;-78
2022/09/19 11:41:35;;;;;;;3.63;2.33;;;;;;;;;;4991015;28;20454;-77
2022/09/19 11:44:08;;;;;;;3.00;1.73;;;;;;;;;;4990368;28;20448;-77
2022/09/19 11:46:41;;;;;;;1.50;1.30;;;;;;;;;;4991386;28;21154;-78
2022/09/19 11:49:20;;;;;;;4.57;1.83;;;;;;;;;;4989654;28;20499;-78
2022/09/19 11:51:51;;;;;;;4.50;1.80;;;;;;;;;;4998892;28;20543;-78
2022/09/19 11:54:26;;;;;;;1.70;1.60;;;;;;;;;;4997900;28;20456;-78
2022/09/19 11:57:07;;;;;;;3.20;2.00;;;;;;;;;;4991738;28;20448;-77
2022/09/19 11:59:43;;;;;;;3.90;1.70;;;;;;;;;;4987422;28;20511;-77
2022/09/19 12:02:24;;;;;;;5.70;1.50;;;;;;;;;;4992784;28;20439;-77
2022/09/19 12:04:56;;;;;;;5.87;1.90;;;;;;;;;;4992709;28;20798;-77
2022/09/19 12:07:31;;;;;;;1.63;1.50;;;;;;;;;;4997425;28;20928;-78
2022/09/19 12:10:02;;;;;;;4.13;1.80;;;;;;;;;;4996605;28;20451;-78
2022/09/19 12:12:36;;;;;;;1.83;1.67;;;;;;;;;;4996599;28;20480;-78
2022/09/19 12:15:07;;;;;;;7.70;1.97;;;;;;;;;;4999146;28;20546;-77
2022/09/19 12:17:39;;;;;;;2.50;1.43;;;;;;;;;;4982006;28;20535;-78
2022/09/19 12:20:13;;;;;;;5.30;1.90;;;;;;;;;;4994581;28;20985;-76
2022/09/19 12:22:45;;;;;;;2.93;1.60;;;;;;;;;;4986725;28;20451;-77
2022/09/19 12:25:17;;;;;;;2.00;1.70;;;;;;;;;;4992904;28;20440;-78
2022/09/19 12:27:46;;;;;;;3.10;1.77;;;;;;;;;;4989128;28;20843;-77
2022/09/19 12:30:14;;;;;;;2.50;1.47;;;;;;;;;;4997610;28;20441;-78
2022/09/19 12:32:46;;;;;;;2.63;1.70;;;;;;;;;;4996688;28;20543;-77
2022/09/19 12:35:16;;;;;;;2.53;1.50;;;;;;;;;;4994256;28;20493;-76
2022/09/19 12:37:48;;;;;;;2.63;1.50;;;;;;;;;;4995061;28;20463;-78
2022/09/19 12:40:26;;;;;;;2.40;1.33;;;;;;;;;;4994338;28;20444;-77
2022/09/19 12:42:56;;;;;;;3.13;1.30;;;;;;;;;;4993707;28;20817;-77
2022/09/19 12:45:24;;;;;;;2.43;1.40;;;;;;;;;;4995025;28;20447;-77
2022/09/19 12:47:55;;;;;;;2.80;1.10;;;;;;;;;;4994142;28;20862;-78
2022/09/19 12:50:32;;;;;;;2.90;1.50;;;;;;;;;;4994769;28;20518;-76
2022/09/19 12:53:07;;;;;;;3.73;1.43;;;;;;;;;;4994505;28;20432;-78
2022/09/19 12:55:39;;;;;;;3.47;1.90;;;;;;;;;;4994524;28;20447;-77
2022/09/19 12:58:10;;;;;;;2.50;2.03;;;;;;;;;;4993572;28;20508;-77
2022/09/19 13:00:42;;;;;;;2.00;1.37;;;;;;;;;;4993573;28;20455;-76
2022/09/19 13:03:15;;;;;;;4.03;1.20;;;;;;;;;;4991802;28;20456;-75
2022/09/19 13:05:46;;;;;;;2.80;2.00;;;;;;;;;;4992794;28;20444;-76
2022/09/19 13:08:14;;;;;;;2.37;1.63;;;;;;;;;;4993192;28;20456;-77
2022/09/19 13:10:46;;;;;;;2.73;1.30;;;;;;;;;;4993302;28;20527;-76
2022/09/19 13:13:17;;;;;;;4.00;1.40;;;;;;;;;;4993488;28;20471;-78
2022/09/19 13:15:47;;;;;;;1.50;1.40;;;;;;;;;;4993226;28;20538;-77
2022/09/19 13:23:45;;;;;;;3.20;1.97;;;;;;;;;;4992735;28;20970;-78
2022/09/19 13:26:19;;;;;;;3.47;1.73;;;;;;;;;;4992411;28;20448;-76
2022/09/19 13:28:48;;;;;;;3.87;1.50;;;;;;;;;;4993795;28;20551;-77
2022/09/19 13:31:17;;;;;;;2.97;1.40;;;;;;;;;;4994438;28;20869;-77
2022/09/19 13:33:45;;;;;;;2.47;1.50;;;;;;;;;;4993227;28;20983;-77
2022/09/19 13:36:13;;;;;;;2.23;1.60;;;;;;;;;;4993976;28;20498;-77
2022/09/19 13:38:41;;;;;;;1.90;1.47;;;;;;;;;;4992513;28;20538;-77
2022/09/19 13:41:09;;;;;;;3.73;1.40;;;;;;;;;;4992956;28;20495;-77
2022/09/19 13:43:49;;;;;;;1.87;1.20;;;;;;;;;;4992567;28;20464;-77
2022/09/19 13:46:19;;;;;;;3.17;1.20;;;;;;;;;;4992526;28;20456;-77
2022/09/19 13:48:48;;;;;;;2.00;1.10;;;;;;;;;;4991978;28;20476;-77
2022/09/19 13:51:22;;;;;;;1.73;1.50;;;;;;;;;;4991877;28;20467;-77
2022/09/19 13:54:14;;;;;;;3.20;1.50;;;;;;;;;;4983374;28;20889;-76
2022/09/19 13:56:43;;;;;;;4.20;1.40;;;;;;;;;;4984763;28;20468;-77
2022/09/19 13:59:19;;;;;;;3.63;1.30;;;;;;;;;;4991362;28;20991;-77
2022/09/19 14:01:57;;;;;;;1.17;1.07;;;;;;;;;;4991423;28;20448;-77
2022/09/19 14:07:16;;;;;;;2.80;1.30;;;;;;;;;;4991753;28;20427;-77
2022/09/19 14:09:45;;;;;;;3.10;1.30;;;;;;;;;;4991422;28;21058;-76
2022/09/19 14:12:31;;;;;;;3.53;1.20;;;;;;;;;;4991360;28;20475;-77
2022/09/19 14:14:59;;;;;;;1.43;1.37;;;;;;;;;;4992059;28;20488;-77
2022/09/19 14:17:30;;;;;;;2.97;1.37;;;;;;;;;;4991404;28;20481;-77
2022/09/19 14:20:04;;;;;;;2.80;1.43;;;;;;;;;;4990901;28;20531;-77
2022/09/19 14:22:52;;;;;;;2.37;1.60;;;;;;;;;;4990510;28;20444;-76
2022/09/19 14:25:22;;;;;;;1.73;1.60;;;;;;;;;;4987004;28;20452;-77
2022/09/19 14:27:55;;;;;;;2.63;1.20;;;;;;;;;;4991720;28;20472;-76
2022/09/19 14:30:30;;;;;;;2.73;1.40;;;;;;;;;;4991958;28;20518;-76
2022/09/19 14:33:09;;;;;;;2.73;1.13;;;;;;;;;;4991235;28;20440;-77
2022/09/19 14:35:44;;;;;;;1.20;1.07;;;;;;;;;;4991740;28;20440;-76
2022/09/19 14:38:24;;;;;;;0.80;0.73;;;;;;;;;;4991953;28;20829;-77
2022/09/19 14:40:57;;;;;;;2.10;1.33;;;;;;;;;;4991816;28;20449;-76
2022/09/19 14:43:32;;;;;;;1.67;0.90;;;;;;;;;;4990193;28;20444;-77
2022/09/19 14:46:10;;;;;;;2.10;1.10;;;;;;;;;;4991081;28;20448;-77
2022/09/19 14:48:40;;;;;;;1.20;1.00;;;;;;;;;;4991338;28;20560;-77
2022/09/19 14:51:17;;;;;;;0.80;0.80;;;;;;;;;;4991026;28;20444;-76
2022/09/19 14:53:45;;;;;;;2.70;1.60;;;;;;;;;;4990679;28;20832;-77
2022/09/19 14:56:13;;;;;;;1.20;1.10;;;;;;;;;;4991788;28;20464;-79
2022/09/19 14:58:41;;;;;;;1.80;1.50;;;;;;;;;;4995803;28;20514;-78
2022/09/19 15:01:14;;;;;;;1.20;0.90;;;;;;;;;;4996417;28;20444;-78
2022/09/19 15:03:46;;;;;;;2.23;1.00;;;;;;;;;;5006384;28;20459;-77
2022/09/19 15:06:17;;;;;;;1.80;1.70;;;;;;;;;;5005008;28;20479;-78
2022/09/19 15:08:48;;;;;;;1.50;1.40;;;;;;;;;;5005304;28;20475;-75
2022/09/19 15:11:19;;;;;;;1.10;1.10;;;;;;;;;;5005803;28;20475;-76
2022/09/19 15:13:46;;;;;;;2.73;1.50;;;;;;;;;;5010228;28;20455;-76
2022/09/19 15:16:15;;;;;;;1.70;1.57;;;;;;;;;;4993655;28;20728;-78
2022/09/19 15:18:43;;;;;;;2.77;1.40;;;;;;;;;;4992837;28;20480;-77
2022/09/19 15:21:15;;;;;;;7.57;1.40;;;;;;;;;;4993142;28;20456;-77
2022/09/19 15:23:43;;;;;;;2.30;2.10;;;;;;;;;;5006726;28;20441;-77